createdAt,value
2018-12-06T00:00:33.920Z,100243.32
2018-12-06T00:01:08.513Z,100244.55
2018-12-06T00:01:43.638Z,100243.67
2018-12-06T00:02:18.333Z,100247.12
2018-12-06T00:02:53.234Z,100245.04
2018-12-06T00:03:28.488Z,100239.05
2018-12-06T00:04:03.669Z,100241.19
2018-12-06T00:04:38.274Z,100241.55
2018-12-06T00:05:12.921Z,100240.70
2018-12-06T00:05:47.525Z,100236.80
2018-12-06T00:06:22.234Z,100238.48
2018-12-06T00:06:56.944Z,100238.03
2018-12-06T00:07:31.674Z,100232.09
2018-12-06T00:08:19.684Z,100237.23
2018-12-06T00:08:54.574Z,100226.66
2018-12-06T00:09:29.323Z,100233.83
2018-12-06T00:10:04.719Z,100228.77
2018-12-06T00:10:39.417Z,100235.12
2018-12-06T00:11:14.051Z,100232.55
2018-12-06T00:11:48.718Z,100235.98
2018-12-06T00:12:24.184Z,100234.27
2018-12-06T00:12:58.933Z,100229.98
2018-12-06T00:13:33.632Z,100235.98
2018-12-06T00:14:08.728Z,100231.76
2018-12-06T00:14:43.313Z,100230.47
2018-12-06T00:15:27.602Z,100228.26
2018-12-06T00:16:02.724Z,100229.93
2018-12-06T00:16:37.429Z,100228.66
2018-12-06T00:17:12.030Z,100226.59
2018-12-06T00:17:46.622Z,100222.89
2018-12-06T00:18:21.319Z,100229.31
2018-12-06T00:19:07.821Z,100225.97
2018-12-06T00:19:42.474Z,100224.33
2018-12-06T00:20:17.086Z,100229.08
2018-12-06T00:20:51.785Z,100227.39
2018-12-06T00:21:26.385Z,100225.69
2018-12-06T00:22:00.996Z,100225.69
2018-12-06T00:22:35.641Z,100232.11
2018-12-06T00:23:10.317Z,100228.67
2018-12-06T00:23:44.934Z,100226.08
2018-12-06T00:24:19.531Z,100231.19
2018-12-06T00:24:54.312Z,100225.77
2018-12-06T00:25:28.980Z,100228.80
2018-12-06T00:26:03.572Z,100228.05
2018-12-06T00:26:38.266Z,100229.39
2018-12-06T00:27:13.182Z,100224.77
2018-12-06T00:27:47.778Z,100223.09
2018-12-06T00:28:22.593Z,100219.73
2018-12-06T00:28:57.350Z,100221.50
2018-12-06T00:29:31.980Z,100223.22
2018-12-06T00:30:17.737Z,100213.41
2018-12-06T00:30:52.473Z,100224.08
2018-12-06T00:31:27.301Z,100219.00
2018-12-06T00:32:01.947Z,100219.86
2018-12-06T00:32:36.573Z,100215.55
2018-12-06T00:33:11.639Z,100218.95
2018-12-06T00:33:46.332Z,100218.57
2018-12-06T00:34:20.917Z,100219.00
2018-12-06T00:34:55.590Z,100225.84
2018-12-06T00:35:30.329Z,100221.14
2018-12-06T00:36:05.563Z,100218.59
2018-12-06T00:36:40.154Z,100222.88
2018-12-06T00:37:14.726Z,100218.67
2018-12-06T00:37:49.327Z,100225.09
2018-12-06T00:38:24.026Z,100220.81
2018-12-06T00:38:59.052Z,100213.30
2018-12-06T00:39:33.632Z,100219.73
2018-12-06T00:40:08.692Z,100212.95
2018-12-06T00:40:43.268Z,100213.41
2018-12-06T00:41:17.899Z,100212.15
2018-12-06T00:41:52.740Z,100213.82
2018-12-06T00:42:27.570Z,100208.73
2018-12-06T00:43:02.296Z,100210.51
2018-12-06T00:43:36.933Z,100212.66
2018-12-06T00:44:11.504Z,100209.16
2018-12-06T00:44:46.086Z,100199.82
2018-12-06T00:45:21.730Z,100205.08
2018-12-06T00:45:56.815Z,100200.25
2018-12-06T00:46:31.418Z,100206.26
2018-12-06T00:47:06.042Z,100201.05
2018-12-06T00:47:40.637Z,100201.34
2018-12-06T00:48:15.265Z,100196.67
2018-12-06T00:48:49.861Z,100195.84
2018-12-06T00:49:24.522Z,100199.59
2018-12-06T00:49:59.172Z,100197.13
2018-12-06T00:50:33.761Z,100198.47
2018-12-06T00:51:08.330Z,100200.14
2018-12-06T00:51:42.909Z,100198.47
2018-12-06T00:52:17.563Z,100194.78
2018-12-06T00:52:52.146Z,100196.14
2018-12-06T00:53:26.812Z,100204.98
2018-12-06T00:54:01.429Z,100198.63
2018-12-06T00:54:36.004Z,100205.69
2018-12-06T00:55:11.045Z,100206.37
2018-12-06T00:55:45.629Z,100211.70
2018-12-06T00:56:20.293Z,100213.89
2018-12-06T00:56:54.922Z,100208.66
2018-12-06T00:57:29.710Z,100213.43
2018-12-06T00:58:04.325Z,100218.11
2018-12-06T00:58:38.952Z,100222.02
2018-12-06T00:59:13.564Z,100220.78
2018-12-06T00:59:48.191Z,100216.13
2018-12-06T01:00:23.059Z,100222.98
2018-12-06T01:00:58.218Z,100219.28
2018-12-06T01:01:32.888Z,100223.52
2018-12-06T01:02:09.235Z,100226.58
2018-12-06T01:02:43.912Z,100225.31
2018-12-06T01:03:18.631Z,100228.31
2018-12-06T01:03:54.049Z,100226.66
2018-12-06T01:04:28.724Z,100233.08
2018-12-06T01:05:03.938Z,100226.72
2018-12-06T01:05:38.532Z,100228.88
2018-12-06T01:06:13.606Z,100226.33
2018-12-06T01:06:48.222Z,100227.52
2018-12-06T01:07:23.124Z,100225.55
2018-12-06T01:07:57.780Z,100221.66
2018-12-06T01:08:32.505Z,100219.44
2018-12-06T01:09:08.122Z,100216.95
2018-12-06T01:09:42.745Z,100221.31
2018-12-06T01:10:17.343Z,100221.24
2018-12-06T01:10:52.086Z,100231.50
2018-12-06T01:11:27.131Z,100220.27
2018-12-06T01:12:01.755Z,100223.27
2018-12-06T01:12:36.745Z,100218.16
2018-12-06T01:13:11.459Z,100225.02
2018-12-06T01:13:46.959Z,100221.68
2018-12-06T01:14:23.680Z,100220.58
2018-12-06T01:14:58.647Z,100220.70
2018-12-06T01:15:33.304Z,100227.10
2018-12-06T01:16:07.921Z,100228.10
2018-12-06T01:16:42.523Z,100227.73
2018-12-06T01:17:17.124Z,100221.83
2018-12-06T01:17:51.747Z,100222.11
2018-12-06T01:18:26.522Z,100217.80
2018-12-06T01:19:01.300Z,100216.46
2018-12-06T01:19:36.917Z,100221.29
2018-12-06T01:20:11.569Z,100223.52
2018-12-06T01:20:46.260Z,100227.02
2018-12-06T01:21:20.897Z,100225.53
2018-12-06T01:21:55.589Z,100223.27
2018-12-06T01:22:30.785Z,100222.30
2018-12-06T01:23:05.441Z,100220.37
2018-12-06T01:23:40.048Z,100225.51
2018-12-06T01:24:14.673Z,100220.70
2018-12-06T01:24:49.285Z,100224.13
2018-12-06T01:25:24.050Z,100220.31
2018-12-06T01:25:58.737Z,100218.70
2018-12-06T01:26:33.382Z,100221.24
2018-12-06T01:27:08.018Z,100216.17
2018-12-06T01:27:42.641Z,100217.08
2018-12-06T01:28:17.288Z,100216.61
2018-12-06T01:28:52.012Z,100219.03
2018-12-06T01:29:26.739Z,100214.25
2018-12-06T01:30:01.401Z,100212.58
2018-12-06T01:30:36.538Z,100210.42
2018-12-06T01:31:11.188Z,100217.70
2018-12-06T01:31:46.002Z,100217.70
2018-12-06T01:32:20.715Z,100219.44
2018-12-06T01:32:55.451Z,100215.69
2018-12-06T01:33:30.173Z,100221.27
2018-12-06T01:34:04.887Z,100218.11
2018-12-06T01:34:40.340Z,100212.86
2018-12-06T01:35:15.018Z,100213.30
2018-12-06T01:35:49.626Z,100215.41
2018-12-06T01:36:24.430Z,100219.19
2018-12-06T01:36:59.197Z,100219.23
2018-12-06T01:37:33.873Z,100215.93
2018-12-06T01:38:08.683Z,100222.69
2018-12-06T01:38:43.502Z,100223.78
2018-12-06T01:39:18.151Z,100221.70
2018-12-06T01:39:53.017Z,100214.08
2018-12-06T01:40:27.829Z,100217.47
2018-12-06T01:41:02.439Z,100226.00
2018-12-06T01:41:37.046Z,100223.92
2018-12-06T01:42:11.645Z,100216.28
2018-12-06T01:42:46.237Z,100226.52
2018-12-06T01:43:20.954Z,100219.70
2018-12-06T01:43:55.789Z,100229.50
2018-12-06T01:44:30.482Z,100220.55
2018-12-06T01:45:06.602Z,100226.52
2018-12-06T01:45:41.239Z,100222.98
2018-12-06T01:46:15.864Z,100224.17
2018-12-06T01:46:50.501Z,100225.77
2018-12-06T01:47:25.298Z,100227.92
2018-12-06T01:48:00.154Z,100227.07
2018-12-06T01:48:35.125Z,100227.07
2018-12-06T01:49:09.863Z,100224.53
2018-12-06T01:49:44.498Z,100226.48
2018-12-06T01:50:19.208Z,100226.89
2018-12-06T01:50:54.565Z,100225.30
2018-12-06T01:51:29.459Z,100219.77
2018-12-06T01:52:04.573Z,100221.75
2018-12-06T01:52:39.294Z,100228.94
2018-12-06T01:53:14.058Z,100220.88
2018-12-06T01:53:49.440Z,100225.98
2018-12-06T01:54:24.235Z,100229.43
2018-12-06T01:54:59.192Z,100221.00
2018-12-06T01:55:33.792Z,100223.24
2018-12-06T01:56:08.411Z,100218.70
2018-12-06T01:56:43.038Z,100230.75
2018-12-06T01:57:17.641Z,100227.84
2018-12-06T01:57:52.565Z,100225.42
2018-12-06T01:58:27.546Z,100216.56
2018-12-06T01:59:02.201Z,100221.73
2018-12-06T01:59:37.318Z,100225.87
2018-12-06T02:00:13.474Z,100218.65
2018-12-06T02:00:48.073Z,100222.45
2018-12-06T02:01:22.820Z,100228.41
2018-12-06T02:01:57.533Z,100218.59
2018-12-06T02:02:32.173Z,100220.20
2018-12-06T02:03:06.766Z,100223.55
2018-12-06T02:03:41.385Z,100225.25
2018-12-06T02:04:16.066Z,100219.29
2018-12-06T02:04:50.894Z,100226.97
2018-12-06T02:05:25.497Z,100230.47
2018-12-06T02:06:00.188Z,100231.19
2018-12-06T02:06:34.839Z,100232.94
2018-12-06T02:07:09.448Z,100230.75
2018-12-06T02:07:44.061Z,100228.11
2018-12-06T02:08:18.878Z,100231.95
2018-12-06T02:08:53.673Z,100230.78
2018-12-06T02:09:28.377Z,100228.21
2018-12-06T02:10:04.521Z,100229.85
2018-12-06T02:10:39.180Z,100220.91
2018-12-06T02:11:13.820Z,100222.27
2018-12-06T02:11:48.384Z,100220.96
2018-12-06T02:12:23.085Z,100225.66
2018-12-06T02:12:57.778Z,100228.26
2018-12-06T02:13:32.867Z,100225.25
2018-12-06T02:14:08.556Z,100225.55
2018-12-06T02:14:43.252Z,100225.77
2018-12-06T02:15:17.923Z,100211.27
2018-12-06T02:15:52.536Z,100223.60
2018-12-06T02:16:27.283Z,100222.34
2018-12-06T02:17:01.902Z,100217.80
2018-12-06T02:17:36.564Z,100216.56
2018-12-06T02:18:11.096Z,100212.80
2018-12-06T02:18:45.707Z,100211.42
2018-12-06T02:19:20.822Z,100214.84
2018-12-06T02:19:55.648Z,100215.56
2018-12-06T02:20:30.509Z,100213.14
2018-12-06T02:21:05.571Z,100212.70
2018-12-06T02:21:40.195Z,100210.66
2018-12-06T02:22:14.740Z,100212.95
2018-12-06T02:22:49.316Z,100216.26
2018-12-06T02:23:24.089Z,100209.02
2018-12-06T02:24:05.309Z,100215.36
2018-12-06T02:24:39.877Z,100213.05
2018-12-06T02:25:14.829Z,100213.05
2018-12-06T02:25:49.408Z,100208.31
2018-12-06T02:26:24.097Z,100211.66
2018-12-06T02:26:58.706Z,100209.91
2018-12-06T02:27:33.345Z,100197.95
2018-12-06T02:28:07.913Z,100207.08
2018-12-06T02:28:42.497Z,100203.08
2018-12-06T02:29:17.098Z,100203.70
2018-12-06T02:29:54.951Z,100198.17
2018-12-06T02:30:30.170Z,100195.97
2018-12-06T02:31:05.240Z,100198.14
2018-12-06T02:31:39.846Z,100202.30
2018-12-06T02:32:14.452Z,100199.73
2018-12-06T02:32:49.076Z,100203.27
2018-12-06T02:33:24.249Z,100201.84
2018-12-06T02:33:58.968Z,100194.44
2018-12-06T02:34:33.560Z,100193.70
2018-12-06T02:35:08.665Z,100196.37
2018-12-06T02:35:43.239Z,100194.30
2018-12-06T02:36:17.808Z,100195.30
2018-12-06T02:36:52.619Z,100192.44
2018-12-06T02:37:27.340Z,100190.91
2018-12-06T02:38:01.929Z,100191.34
2018-12-06T02:38:36.516Z,100184.43
2018-12-06T02:39:11.108Z,100189.61
2018-12-06T02:39:45.779Z,100189.64
2018-12-06T02:40:21.071Z,100188.33
2018-12-06T02:40:55.855Z,100189.48
2018-12-06T02:41:30.433Z,100181.42
2018-12-06T02:42:05.044Z,100190.85
2018-12-06T02:42:39.671Z,100183.32
2018-12-06T02:43:14.268Z,100180.47
2018-12-06T02:43:48.913Z,100177.52
2018-12-06T02:44:23.898Z,100176.62
2018-12-06T02:44:58.584Z,100180.75
2018-12-06T02:45:33.349Z,100178.49
2018-12-06T02:46:08.030Z,100178.63
2018-12-06T02:46:42.618Z,100173.56
2018-12-06T02:47:17.217Z,100174.73
2018-12-06T02:47:51.875Z,100173.86
2018-12-06T02:48:26.693Z,100173.13
2018-12-06T02:49:01.365Z,100175.53
2018-12-06T02:49:36.254Z,100171.81
2018-12-06T02:50:11.293Z,100174.76
2018-12-06T02:50:45.909Z,100181.34
2018-12-06T02:51:20.533Z,100178.83
2018-12-06T02:51:55.480Z,100185.51
2018-12-06T02:52:30.108Z,100179.55
2018-12-06T02:53:04.665Z,100181.24
2018-12-06T02:53:39.265Z,100183.55
2018-12-06T02:54:13.856Z,100185.45
2018-12-06T02:54:48.448Z,100185.73
2018-12-06T02:55:23.720Z,100185.87
2018-12-06T02:55:58.527Z,100183.63
2018-12-06T02:56:33.197Z,100188.77
2018-12-06T02:57:08.242Z,100193.06
2018-12-06T02:57:43.110Z,100188.90
2018-12-06T02:58:17.725Z,100192.70
2018-12-06T02:58:52.372Z,100194.78
2018-12-06T02:59:27.021Z,100190.16
2018-12-06T03:00:01.641Z,100194.91
2018-12-06T03:00:36.254Z,100195.34
2018-12-06T03:01:10.915Z,100198.04
2018-12-06T03:01:45.500Z,100196.81
2018-12-06T03:02:20.085Z,100190.48
2018-12-06T03:02:54.752Z,100188.33
2018-12-06T03:03:29.518Z,100194.24
2018-12-06T03:04:04.801Z,100192.26
2018-12-06T03:04:39.363Z,100193.80
2018-12-06T03:05:14.478Z,100190.22
2018-12-06T03:05:49.082Z,100188.95
2018-12-06T03:06:24.294Z,100188.47
2018-12-06T03:06:58.852Z,100191.25
2018-12-06T03:07:33.434Z,100198.69
2018-12-06T03:08:07.977Z,100187.61
2018-12-06T03:08:42.549Z,100192.65
2018-12-06T03:09:17.108Z,100191.83
2018-12-06T03:09:51.774Z,100191.03
2018-12-06T03:10:26.495Z,100193.41
2018-12-06T03:11:01.241Z,100187.92
2018-12-06T03:11:35.812Z,100187.94
2018-12-06T03:12:10.426Z,100182.62
2018-12-06T03:12:45.006Z,100188.73
2018-12-06T03:13:19.643Z,100181.55
2018-12-06T03:13:54.415Z,100181.98
2018-12-06T03:14:29.036Z,100179.52
2018-12-06T03:15:04.550Z,100180.39
2018-12-06T03:15:39.424Z,100179.19
2018-12-06T03:16:14.234Z,100177.90
2018-12-06T03:16:48.811Z,100179.57
2018-12-06T03:17:23.712Z,100177.86
2018-12-06T03:17:58.395Z,100179.66
2018-12-06T03:18:33.147Z,100172.52
2018-12-06T03:19:07.725Z,100169.44
2018-12-06T03:19:42.389Z,100170.23
2018-12-06T03:20:17.087Z,100175.97
2018-12-06T03:20:51.663Z,100171.05
2018-12-06T03:21:26.311Z,100172.71
2018-12-06T03:22:00.941Z,100178.77
2018-12-06T03:22:35.973Z,100177.30
2018-12-06T03:23:10.562Z,100178.35
2018-12-06T03:23:45.442Z,100169.63
2018-12-06T03:24:20.118Z,100174.89
2018-12-06T03:24:55.064Z,100179.91
2018-12-06T03:25:29.809Z,100175.07
2018-12-06T03:26:04.833Z,100176.98
2018-12-06T03:26:39.410Z,100182.60
2018-12-06T03:27:14.012Z,100175.36
2018-12-06T03:27:48.593Z,100185.09
2018-12-06T03:28:23.571Z,100176.28
2018-12-06T03:28:58.203Z,100177.64
2018-12-06T03:29:32.820Z,100177.88
2018-12-06T03:30:08.341Z,100172.45
2018-12-06T03:30:43.010Z,100179.75
2018-12-06T03:31:17.651Z,100181.88
2018-12-06T03:31:52.583Z,100184.87
2018-12-06T03:32:27.599Z,100186.20
2018-12-06T03:33:02.279Z,100177.20
2018-12-06T03:33:37.211Z,100186.09
2018-12-06T03:34:11.805Z,100184.89
2018-12-06T03:34:46.444Z,100184.25
2018-12-06T03:35:21.020Z,100186.89
2018-12-06T03:35:55.694Z,100182.14
2018-12-06T03:36:30.301Z,100185.53
2018-12-06T03:37:04.994Z,100180.11
2018-12-06T03:37:39.581Z,100180.55
2018-12-06T03:38:14.149Z,100181.45
2018-12-06T03:38:48.729Z,100184.15
2018-12-06T03:39:23.632Z,100185.48
2018-12-06T03:39:58.281Z,100177.92
2018-12-06T03:40:32.897Z,100183.48
2018-12-06T03:41:07.593Z,100180.42
2018-12-06T03:41:42.168Z,100178.75
2018-12-06T03:42:16.728Z,100186.35
2018-12-06T03:42:51.355Z,100183.27
2018-12-06T03:43:26.007Z,100182.50
2018-12-06T03:44:00.760Z,100182.60
2018-12-06T03:44:36.476Z,100179.58
2018-12-06T03:45:11.120Z,100175.72
2018-12-06T03:45:45.713Z,100176.57
2018-12-06T03:46:20.381Z,100177.73
2018-12-06T03:46:55.561Z,100173.05
2018-12-06T03:47:30.187Z,100181.60
2018-12-06T03:48:04.811Z,100175.64
2018-12-06T03:48:39.428Z,100176.05
2018-12-06T03:49:14.328Z,100173.08
2018-12-06T03:49:48.890Z,100174.77
2018-12-06T03:50:23.750Z,100173.05
2018-12-06T03:50:58.438Z,100168.77
2018-12-06T03:51:33.018Z,100172.89
2018-12-06T03:52:07.740Z,100165.23
2018-12-06T03:52:42.341Z,100168.30
2018-12-06T03:53:17.025Z,100168.66
2018-12-06T03:53:52.004Z,100164.93
2018-12-06T03:54:26.637Z,100167.50
2018-12-06T03:55:01.442Z,100168.34
2018-12-06T03:55:36.096Z,100165.48
2018-12-06T03:56:10.697Z,100159.02
2018-12-06T03:56:45.369Z,100161.28
2018-12-06T03:57:19.936Z,100163.26
2018-12-06T03:57:54.785Z,100155.16
2018-12-06T03:58:29.616Z,100156.03
2018-12-06T03:59:04.304Z,100155.14
2018-12-06T03:59:38.845Z,100153.06
2018-12-06T04:00:14.328Z,100146.97
2018-12-06T04:00:49.009Z,100147.09
2018-12-06T04:01:23.740Z,100142.98
2018-12-06T04:01:58.446Z,100147.34
2018-12-06T04:02:33.103Z,100140.30
2018-12-06T04:03:07.660Z,100144.25
2018-12-06T04:03:42.372Z,100145.18
2018-12-06T04:04:16.947Z,100145.65
2018-12-06T04:04:51.896Z,100141.50
2018-12-06T04:05:26.800Z,100147.20
2018-12-06T04:06:01.370Z,100141.20
2018-12-06T04:06:35.944Z,100138.44
2018-12-06T04:07:10.571Z,100145.09
2018-12-06T04:07:45.140Z,100141.68
2018-12-06T04:08:19.780Z,100135.25
2018-12-06T04:08:54.528Z,100135.87
2018-12-06T04:09:29.274Z,100135.61
2018-12-06T04:10:05.450Z,100133.38
2018-12-06T04:10:40.087Z,100133.35
2018-12-06T04:11:14.677Z,100133.35
2018-12-06T04:11:49.270Z,100131.72
2018-12-06T04:12:24.027Z,100137.64
2018-12-06T04:12:58.616Z,100126.43
2018-12-06T04:13:33.211Z,100128.16
2018-12-06T04:14:08.262Z,100125.14
2018-12-06T04:14:43.000Z,100131.05
2018-12-06T04:15:18.108Z,100127.54
2018-12-06T04:15:52.781Z,100125.89
2018-12-06T04:16:27.732Z,100125.60
2018-12-06T04:17:02.995Z,100124.20
2018-12-06T04:17:37.628Z,100128.80
2018-12-06T04:18:12.215Z,100130.16
2018-12-06T04:18:46.889Z,100137.49
2018-12-06T04:19:21.484Z,100136.27
2018-12-06T04:19:56.109Z,100139.80
2018-12-06T04:20:30.913Z,100145.39
2018-12-06T04:21:05.526Z,100146.67
2018-12-06T04:21:40.573Z,100145.39
2018-12-06T04:22:15.271Z,100144.48
2018-12-06T04:22:49.906Z,100140.25
2018-12-06T04:23:24.658Z,100146.98
2018-12-06T04:23:59.388Z,100146.96
2018-12-06T04:24:34.091Z,100151.64
2018-12-06T04:25:08.773Z,100152.52
2018-12-06T04:25:43.520Z,100152.92
2018-12-06T04:26:18.154Z,100144.65
2018-12-06T04:26:52.786Z,100139.91
2018-12-06T04:27:27.577Z,100149.32
2018-12-06T04:28:02.196Z,100147.97
2018-12-06T04:28:37.079Z,100143.77
2018-12-06T04:29:11.665Z,100148.76
2018-12-06T04:29:46.270Z,100149.70
2018-12-06T04:30:20.876Z,100145.41
2018-12-06T04:30:55.488Z,100152.37
2018-12-06T04:31:30.215Z,100153.84
2018-12-06T04:32:04.834Z,100144.30
2018-12-06T04:32:39.472Z,100144.87
2018-12-06T04:33:14.435Z,100145.47
2018-12-06T04:33:49.113Z,100151.46
2018-12-06T04:34:23.911Z,100138.66
2018-12-06T04:34:58.531Z,100145.50
2018-12-06T04:35:33.144Z,100143.36
2018-12-06T04:36:07.778Z,100142.14
2018-12-06T04:36:42.381Z,100146.81
2018-12-06T04:37:17.002Z,100139.91
2018-12-06T04:37:51.814Z,100149.55
2018-12-06T04:38:26.533Z,100140.23
2018-12-06T04:39:01.170Z,100138.09
2018-12-06T04:39:35.761Z,100138.94
2018-12-06T04:40:10.350Z,100141.58
2018-12-06T04:40:44.986Z,100142.02
2018-12-06T04:41:19.637Z,100141.67
2018-12-06T04:41:54.617Z,100149.33
2018-12-06T04:42:29.341Z,100142.05
2018-12-06T04:43:03.940Z,100140.39
2018-12-06T04:43:38.558Z,100143.71
2018-12-06T04:44:13.170Z,100148.33
2018-12-06T04:44:47.821Z,100151.71
2018-12-06T04:45:22.437Z,100144.94
2018-12-06T04:45:57.485Z,100152.48
2018-12-06T04:46:32.120Z,100153.05
2018-12-06T04:47:06.698Z,100148.34
2018-12-06T04:47:41.861Z,100148.28
2018-12-06T04:48:21.946Z,100156.09
2018-12-06T04:48:53.103Z,100156.66
2018-12-06T04:49:27.782Z,100152.15
2018-12-06T04:50:02.613Z,100153.34
2018-12-06T04:50:37.232Z,100154.28
2018-12-06T04:51:12.080Z,100159.77
2018-12-06T04:51:46.790Z,100163.26
2018-12-06T04:52:21.413Z,100158.17
2018-12-06T04:52:56.134Z,100162.44
2018-12-06T04:53:30.797Z,100168.84
2018-12-06T04:54:05.420Z,100168.09
2018-12-06T04:54:46.414Z,100164.63
2018-12-06T04:55:21.115Z,100168.22
2018-12-06T04:55:55.870Z,100165.92
2018-12-06T04:56:30.681Z,100169.15
2018-12-06T04:57:05.362Z,100165.28
2018-12-06T04:57:39.969Z,100158.88
2018-12-06T04:58:14.578Z,100165.59
2018-12-06T04:58:49.191Z,100165.19
2018-12-06T04:59:23.833Z,100163.31
2018-12-06T04:59:58.969Z,100165.92
2018-12-06T05:00:34.070Z,100170.16
2018-12-06T05:01:08.641Z,100159.80
2018-12-06T05:01:43.305Z,100160.14
2018-12-06T05:02:17.897Z,100162.44
2018-12-06T05:02:52.985Z,100166.13
2018-12-06T05:03:27.688Z,100167.92
2018-12-06T05:04:02.300Z,100166.30
2018-12-06T05:04:37.133Z,100171.45
2018-12-06T05:05:11.790Z,100171.38
2018-12-06T05:05:46.407Z,100173.28
2018-12-06T05:06:21.923Z,100161.90
2018-12-06T05:06:56.588Z,100162.30
2018-12-06T05:07:31.351Z,100165.28
2018-12-06T05:08:06.202Z,100167.45
2018-12-06T05:08:40.805Z,100162.71
2018-12-06T05:09:15.416Z,100169.59
2018-12-06T05:09:49.992Z,100155.09
2018-12-06T05:10:24.670Z,100173.42
2018-12-06T05:10:59.537Z,100161.02
2018-12-06T05:11:34.175Z,100160.55
2018-12-06T05:12:08.726Z,100167.39
2018-12-06T05:12:43.307Z,100159.13
2018-12-06T05:13:17.961Z,100168.66
2018-12-06T05:13:52.681Z,100165.50
2018-12-06T05:14:27.366Z,100163.06
2018-12-06T05:15:02.053Z,100163.33
2018-12-06T05:15:36.699Z,100164.92
2018-12-06T05:16:11.284Z,100160.11
2018-12-06T05:16:45.910Z,100162.92
2018-12-06T05:17:20.496Z,100161.12
2018-12-06T05:17:55.282Z,100164.79
2018-12-06T05:18:30.503Z,100170.34
2018-12-06T05:19:05.206Z,100161.20
2018-12-06T05:19:39.798Z,100163.13
2018-12-06T05:20:14.416Z,100154.42
2018-12-06T05:20:49.046Z,100159.06
2018-12-06T05:21:24.206Z,100159.13
2018-12-06T05:21:58.929Z,100158.35
2018-12-06T05:22:33.512Z,100171.30
2018-12-06T05:23:08.106Z,100157.23
2018-12-06T05:23:42.759Z,100159.16
2018-12-06T05:24:17.372Z,100159.32
2018-12-06T05:24:52.046Z,100159.23
2018-12-06T05:25:26.856Z,100162.24
2018-12-06T05:26:01.527Z,100163.36
2018-12-06T05:26:36.227Z,100163.67
2018-12-06T05:27:10.928Z,100158.08
2018-12-06T05:27:45.584Z,100165.16
2018-12-06T05:28:20.276Z,100168.82
2018-12-06T05:28:54.980Z,100166.02
2018-12-06T05:29:29.644Z,100158.45
2018-12-06T05:30:05.771Z,100167.91
2018-12-06T05:30:40.457Z,100168.04
2018-12-06T05:31:15.196Z,100162.92
2018-12-06T05:31:49.833Z,100170.48
2018-12-06T05:32:24.628Z,100173.87
2018-12-06T05:32:59.364Z,100171.30
2018-12-06T05:33:34.061Z,100175.66
2018-12-06T05:34:09.147Z,100167.84
2018-12-06T05:34:44.109Z,100179.93
2018-12-06T05:35:18.714Z,100172.27
2018-12-06T05:35:53.513Z,100172.68
2018-12-06T05:36:28.524Z,100162.79
2018-12-06T05:37:03.175Z,100164.08
2018-12-06T05:37:37.918Z,100168.82
2018-12-06T05:38:12.634Z,100168.58
2018-12-06T05:38:47.799Z,100173.30
2018-12-06T05:39:22.864Z,100170.41
2018-12-06T05:39:57.517Z,100166.08
2018-12-06T05:40:32.194Z,100171.97
2018-12-06T05:41:06.785Z,100166.34
2018-12-06T05:41:41.429Z,100173.77
2018-12-06T05:42:16.079Z,100165.20
2018-12-06T05:42:50.716Z,100169.33
2018-12-06T05:43:25.439Z,100163.80
2018-12-06T05:44:00.233Z,100166.78
2018-12-06T05:44:34.900Z,100164.08
2018-12-06T05:45:09.528Z,100163.60
2018-12-06T05:45:46.236Z,100158.69
2018-12-06T05:46:20.897Z,100169.36
2018-12-06T05:46:55.665Z,100159.47
2018-12-06T05:47:31.585Z,100157.33
2018-12-06T05:48:06.253Z,100159.37
2018-12-06T05:48:40.866Z,100168.38
2018-12-06T05:49:15.635Z,100160.75
2018-12-06T05:49:50.232Z,100155.98
2018-12-06T05:50:24.900Z,100165.30
2018-12-06T05:50:59.618Z,100164.01
2018-12-06T05:51:34.298Z,100165.77
2018-12-06T05:52:08.942Z,100161.27
2018-12-06T05:52:43.511Z,100159.97
2018-12-06T05:53:18.209Z,100165.59
2018-12-06T05:53:52.962Z,100164.38
2018-12-06T05:54:27.641Z,100157.88
2018-12-06T05:55:02.855Z,100163.56
2018-12-06T05:55:37.499Z,100169.45
2018-12-06T05:56:12.169Z,100162.78
2018-12-06T05:56:46.803Z,100162.81
2018-12-06T05:57:21.527Z,100164.16
2018-12-06T05:57:56.282Z,100157.86
2018-12-06T05:58:31.017Z,100167.89
2018-12-06T05:59:05.750Z,100166.03
2018-12-06T05:59:40.392Z,100156.28
2018-12-06T06:00:15.034Z,100165.59
2018-12-06T06:00:49.668Z,100159.60
2018-12-06T06:01:24.521Z,100162.79
2018-12-06T06:01:59.375Z,100169.99
2018-12-06T06:02:34.019Z,100167.39
2018-12-06T06:03:08.716Z,100160.11
2018-12-06T06:03:43.577Z,100169.18
2018-12-06T06:04:18.485Z,100162.27
2018-12-06T06:04:53.198Z,100168.87
2018-12-06T06:05:28.033Z,100178.44
2018-12-06T06:06:02.694Z,100174.27
2018-12-06T06:06:37.290Z,100178.91
2018-12-06T06:07:12.121Z,100178.97
2018-12-06T06:07:46.795Z,100180.33
2018-12-06T06:08:21.464Z,100178.56
2018-12-06T06:08:56.296Z,100178.12
2018-12-06T06:09:31.536Z,100177.81
2018-12-06T06:10:07.319Z,100182.59
2018-12-06T06:10:41.990Z,100186.53
2018-12-06T06:11:16.674Z,100181.38
2018-12-06T06:11:51.310Z,100180.29
2018-12-06T06:12:26.294Z,100191.30
2018-12-06T06:13:01.050Z,100184.88
2018-12-06T06:13:36.654Z,100188.48
2018-12-06T06:14:11.242Z,100181.30
2018-12-06T06:14:45.848Z,100183.41
2018-12-06T06:15:21.017Z,100190.59
2018-12-06T06:15:56.181Z,100187.34
2018-12-06T06:16:32.181Z,100186.59
2018-12-06T06:17:07.181Z,100182.67
2018-12-06T06:17:41.768Z,100185.78
2018-12-06T06:18:16.445Z,100189.64
2018-12-06T06:18:51.354Z,100187.55
2018-12-06T06:19:26.022Z,100190.93
2018-12-06T06:20:00.718Z,100191.12
2018-12-06T06:20:35.337Z,100188.08
2018-12-06T06:21:10.433Z,100189.08
2018-12-06T06:21:45.057Z,100184.84
2018-12-06T06:22:21.522Z,100195.08
2018-12-06T06:22:56.345Z,100192.81
2018-12-06T06:23:31.092Z,100194.61
2018-12-06T06:24:05.772Z,100195.83
2018-12-06T06:24:40.384Z,100195.05
2018-12-06T06:25:14.975Z,100198.06
2018-12-06T06:25:49.616Z,100199.76
2018-12-06T06:26:24.395Z,100203.62
2018-12-06T06:26:59.212Z,100196.64
2018-12-06T06:27:33.901Z,100200.85
2018-12-06T06:28:09.186Z,100197.94
2018-12-06T06:28:43.782Z,100207.04
2018-12-06T06:29:18.430Z,100197.97
2018-12-06T06:29:53.134Z,100200.85
2018-12-06T06:30:28.040Z,100209.11
2018-12-06T06:31:02.833Z,100204.72
2018-12-06T06:31:37.456Z,100204.34
2018-12-06T06:32:12.127Z,100208.67
2018-12-06T06:32:46.777Z,100204.34
2018-12-06T06:33:21.414Z,100208.70
2018-12-06T06:33:56.255Z,100209.86
2018-12-06T06:34:31.129Z,100215.52
2018-12-06T06:35:07.125Z,100212.62
2018-12-06T06:35:41.999Z,100212.78
2018-12-06T06:36:16.614Z,100211.46
2018-12-06T06:36:51.200Z,100217.20
2018-12-06T06:37:25.972Z,100209.33
2018-12-06T06:38:00.658Z,100214.28